sensor_id;sensor_type;location;lat;lon;timestamp;pressure;altitude;pressure_sealevel;temperature;humidity
57847;BME280;43675;50.030;21.952;2023-04-28T00:01:10;99224.38;;;2.32;67.53
57847;BME280;43675;50.030;21.952;2023-04-28T00:03:37;99219.80;;;2.18;67.66
57847;BME280;43675;50.030;21.952;2023-04-28T00:06:03;99219.98;;;2.05;67.96
57847;BME280;43675;50.030;21.952;2023-04-28T00:08:30;99220.76;;;1.92;68.19
57847;BME280;43675;50.030;21.952;2023-04-28T00:10:57;99221.37;;;1.80;68.48
57847;BME280;43675;50.030;21.952;2023-04-28T00:13:23;99218.54;;;1.69;68.54
57847;BME280;43675;50.030;21.952;2023-04-28T00:15:50;99221.16;;;1.58;68.93
57847;BME280;43675;50.030;21.952;2023-04-28T00:18:16;99219.30;;;1.48;69.13
57847;BME280;43675;50.030;21.952;2023-04-28T00:20:43;99220.48;;;1.39;69.31
57847;BME280;43675;50.030;21.952;2023-04-28T00:23:09;99219.64;;;1.32;69.54
57847;BME280;43675;50.030;21.952;2023-04-28T00:25:36;99215.11;;;1.25;69.80
57847;BME280;43675;50.030;21.952;2023-04-28T00:28:02;99218.45;;;1.20;69.87
57847;BME280;43675;50.030;21.952;2023-04-28T00:30:29;99221.22;;;1.14;70.09
57847;BME280;43675;50.030;21.952;2023-04-28T00:32:56;99222.79;;;1.09;70.24
57847;BME280;43675;50.030;21.952;2023-04-28T00:35:23;99222.74;;;1.02;70.45
57847;BME280;43675;50.030;21.952;2023-04-28T00:37:49;99223.64;;;0.94;70.55
57847;BME280;43675;50.030;21.952;2023-04-28T00:40:16;99228.04;;;0.86;70.51
57847;BME280;43675;50.030;21.952;2023-04-28T00:42:42;99231.15;;;0.80;70.78
57847;BME280;43675;50.030;21.952;2023-04-28T00:45:09;99229.27;;;0.73;71.12
57847;BME280;43675;50.030;21.952;2023-04-28T00:47:36;99228.56;;;0.67;71.16
57847;BME280;43675;50.030;21.952;2023-04-28T00:50:03;99228.52;;;0.60;71.31
57847;BME280;43675;50.030;21.952;2023-04-28T00:52:31;99229.39;;;0.55;71.55
57847;BME280;43675;50.030;21.952;2023-04-28T00:54:57;99235.09;;;0.50;71.56
57847;BME280;43675;50.030;21.952;2023-04-28T00:57:24;99231.98;;;0.45;71.78
57847;BME280;43675;50.030;21.952;2023-04-28T00:59:50;99233.58;;;0.41;71.96
57847;BME280;43675;50.030;21.952;2023-04-28T01:02:17;99236.13;;;0.38;72.24
57847;BME280;43675;50.030;21.952;2023-04-28T01:04:44;99239.46;;;0.36;72.42
57847;BME280;43675;50.030;21.952;2023-04-28T01:07:11;99237.90;;;0.36;72.41
57847;BME280;43675;50.030;21.952;2023-04-28T01:09:38;99239.35;;;0.36;72.56
57847;BME280;43675;50.030;21.952;2023-04-28T01:12:04;99237.81;;;0.31;72.49
57847;BME280;43675;50.030;21.952;2023-04-28T01:14:32;99236.49;;;0.27;72.64
57847;BME280;43675;50.030;21.952;2023-04-28T01:16:59;99238.73;;;0.21;72.78
57847;BME280;43675;50.030;21.952;2023-04-28T01:19:26;99233.54;;;0.16;73.01
57847;BME280;43675;50.030;21.952;2023-04-28T01:21:52;99235.89;;;0.14;73.01
57847;BME280;43675;50.030;21.952;2023-04-28T01:24:19;99239.49;;;0.13;73.33
57847;BME280;43675;50.030;21.952;2023-04-28T01:26:45;99238.88;;;0.12;73.44
57847;BME280;43675;50.030;21.952;2023-04-28T01:29:12;99239.51;;;0.10;73.90
57847;BME280;43675;50.030;21.952;2023-04-28T01:31:38;99241.32;;;0.10;73.97
57847;BME280;43675;50.030;21.952;2023-04-28T01:34:05;99238.96;;;0.09;74.38
57847;BME280;43675;50.030;21.952;2023-04-28T01:36:32;99238.52;;;0.08;74.37
57847;BME280;43675;50.030;21.952;2023-04-28T01:38:59;99240.77;;;0.06;74.47
57847;BME280;43675;50.030;21.952;2023-04-28T01:41:26;99241.97;;;0.05;74.67
57847;BME280;43675;50.030;21.952;2023-04-28T01:43:52;99237.16;;;0.03;74.74
57847;BME280;43675;50.030;21.952;2023-04-28T01:46:19;99236.27;;;0.06;74.50
57847;BME280;43675;50.030;21.952;2023-04-28T01:48:45;99235.20;;;0.08;74.84
57847;BME280;43675;50.030;21.952;2023-04-28T01:51:12;99236.23;;;0.10;74.86
57847;BME280;43675;50.030;21.952;2023-04-28T01:53:38;99235.17;;;0.10;75.00
57847;BME280;43675;50.030;21.952;2023-04-28T01:56:05;99232.34;;;0.10;75.04
57847;BME280;43675;50.030;21.952;2023-04-28T01:58:32;99234.20;;;0.09;74.99
57847;BME280;43675;50.030;21.952;2023-04-28T02:00:58;99234.84;;;0.08;74.95
57847;BME280;43675;50.030;21.952;2023-04-28T02:03:25;99233.14;;;0.05;75.19
57847;BME280;43675;50.030;21.952;2023-04-28T02:05:51;99231.34;;;0.04;75.23
57847;BME280;43675;50.030;21.952;2023-04-28T02:08:18;99233.16;;;0.03;75.06
57847;BME280;43675;50.030;21.952;2023-04-28T02:10:44;99231.68;;;0.02;75.34
57847;BME280;43675;50.030;21.952;2023-04-28T02:13:11;99230.23;;;0.02;75.50
57847;BME280;43675;50.030;21.952;2023-04-28T02:15:41;99233.66;;;0.05;75.69
57847;BME280;43675;50.030;21.952;2023-04-28T02:18:08;99239.71;;;0.06;75.48
57847;BME280;43675;50.030;21.952;2023-04-28T02:20:35;99237.67;;;0.07;75.66
57847;BME280;43675;50.030;21.952;2023-04-28T02:23:02;99237.36;;;0.07;75.76
57847;BME280;43675;50.030;21.952;2023-04-28T02:25:28;99239.27;;;0.03;75.75
57847;BME280;43675;50.030;21.952;2023-04-28T02:27:55;99240.96;;;0.00;75.66
57847;BME280;43675;50.030;21.952;2023-04-28T02:30:21;99241.72;;;-0.05;75.78
57847;BME280;43675;50.030;21.952;2023-04-28T02:32:48;99247.02;;;-0.07;75.84
57847;BME280;43675;50.030;21.952;2023-04-28T02:35:14;99245.92;;;-0.09;76.05
57847;BME280;43675;50.030;21.952;2023-04-28T02:37:41;99247.73;;;-0.09;76.15
57847;BME280;43675;50.030;21.952;2023-04-28T02:40:08;99246.64;;;-0.07;76.10
57847;BME280;43675;50.030;21.952;2023-04-28T02:42:34;99248.39;;;-0.05;76.26
57847;BME280;43675;50.030;21.952;2023-04-28T02:45:01;99248.10;;;-0.01;76.36
57847;BME280;43675;50.030;21.952;2023-04-28T02:47:27;99246.45;;;0.02;76.39
57847;BME280;43675;50.030;21.952;2023-04-28T02:49:54;99249.34;;;0.03;76.24
57847;BME280;43675;50.030;21.952;2023-04-28T02:52:20;99250.06;;;0.00;76.32
57847;BME280;43675;50.030;21.952;2023-04-28T02:54:47;99252.48;;;-0.03;76.07
57847;BME280;43675;50.030;21.952;2023-04-28T02:57:13;99255.65;;;-0.09;76.16
57847;BME280;43675;50.030;21.952;2023-04-28T02:59:40;99255.55;;;-0.14;76.23
57847;BME280;43675;50.030;21.952;2023-04-28T03:02:06;99259.46;;;-0.18;76.16
57847;BME280;43675;50.030;21.952;2023-04-28T03:04:33;99260.22;;;-0.23;76.16
57847;BME280;43675;50.030;21.952;2023-04-28T03:06:59;99260.15;;;-0.28;76.29
57847;BME280;43675;50.030;21.952;2023-04-28T03:09:26;99264.91;;;-0.35;76.28
57847;BME280;43675;50.030;21.952;2023-04-28T03:11:52;99268.50;;;-0.39;76.44
57847;BME280;43675;50.030;21.952;2023-04-28T03:14:19;99270.61;;;-0.45;76.41
57847;BME280;43675;50.030;21.952;2023-04-28T03:16:45;99275.00;;;-0.50;76.59
57847;BME280;43675;50.030;21.952;2023-04-28T03:19:12;99276.98;;;-0.54;76.69
57847;BME280;43675;50.030;21.952;2023-04-28T03:21:38;99281.73;;;-0.59;76.59
57847;BME280;43675;50.030;21.952;2023-04-28T03:24:05;99280.05;;;-0.63;76.87
57847;BME280;43675;50.030;21.952;2023-04-28T03:26:32;99278.46;;;-0.68;76.86
57847;BME280;43675;50.030;21.952;2023-04-28T03:28:59;99280.74;;;-0.69;76.77
57847;BME280;43675;50.030;21.952;2023-04-28T03:31:25;99284.20;;;-0.71;76.76
57847;BME280;43675;50.030;21.952;2023-04-28T03:33:52;99284.22;;;-0.71;77.08
57847;BME280;43675;50.030;21.952;2023-04-28T03:36:18;99286.66;;;-0.73;76.89
57847;BME280;43675;50.030;21.952;2023-04-28T03:38:45;99285.73;;;-0.74;76.95
57847;BME280;43675;50.030;21.952;2023-04-28T03:41:11;99289.94;;;-0.74;76.97
57847;BME280;43675;50.030;21.952;2023-04-28T03:43:38;99292.47;;;-0.73;77.25
57847;BME280;43675;50.030;21.952;2023-04-28T03:46:04;99291.51;;;-0.72;76.91
57847;BME280;43675;50.030;21.952;2023-04-28T03:48:31;99293.58;;;-0.70;77.23
57847;BME280;43675;50.030;21.952;2023-04-28T03:50:57;99296.92;;;-0.67;77.22
57847;BME280;43675;50.030;21.952;2023-04-28T03:53:24;99297.64;;;-0.64;77.40
57847;BME280;43675;50.030;21.952;2023-04-28T03:55:50;99296.70;;;-0.59;77.39
57847;BME280;43675;50.030;21.952;2023-04-28T03:58:17;99295.89;;;-0.54;77.70
57847;BME280;43675;50.030;21.952;2023-04-28T04:00:44;99297.62;;;-0.49;77.62
57847;BME280;43675;50.030;21.952;2023-04-28T04:03:10;99296.66;;;-0.44;77.85
57847;BME280;43675;50.030;21.952;2023-04-28T04:05:39;99295.38;;;-0.39;77.67
57847;BME280;43675;50.030;21.952;2023-04-28T04:08:05;99295.64;;;-0.32;77.80
57847;BME280;43675;50.030;21.952;2023-04-28T04:10:32;99296.70;;;-0.24;77.69
57847;BME280;43675;50.030;21.952;2023-04-28T04:12:58;99298.89;;;-0.17;77.63
57847;BME280;43675;50.030;21.952;2023-04-28T04:15:25;99296.90;;;-0.08;77.80
57847;BME280;43675;50.030;21.952;2023-04-28T04:17:51;99293.67;;;0.05;77.77
57847;BME280;43675;50.030;21.952;2023-04-28T04:20:18;99294.84;;;0.20;78.15
57847;BME280;43675;50.030;21.952;2023-04-28T04:22:44;99296.47;;;0.37;78.34
57847;BME280;43675;50.030;21.952;2023-04-28T04:25:11;99293.88;;;0.56;78.19
57847;BME280;43675;50.030;21.952;2023-04-28T04:27:37;99294.98;;;0.77;78.12
57847;BME280;43675;50.030;21.952;2023-04-28T04:30:05;99297.84;;;1.00;78.20
57847;BME280;43675;50.030;21.952;2023-04-28T04:32:32;99295.63;;;1.24;78.28
57847;BME280;43675;50.030;21.952;2023-04-28T04:34:58;99294.30;;;1.46;78.16
57847;BME280;43675;50.030;21.952;2023-04-28T04:37:25;99294.38;;;1.67;78.05
57847;BME280;43675;50.030;21.952;2023-04-28T04:39:51;99292.69;;;1.85;77.94
57847;BME280;43675;50.030;21.952;2023-04-28T04:42:18;99295.51;;;2.00;77.87
57847;BME280;43675;50.030;21.952;2023-04-28T04:44:44;99293.52;;;2.12;77.70
57847;BME280;43675;50.030;21.952;2023-04-28T04:47:11;99293.66;;;2.21;77.55
57847;BME280;43675;50.030;21.952;2023-04-28T04:49:37;99296.77;;;2.29;77.39
57847;BME280;43675;50.030;21.952;2023-04-28T04:52:04;99299.92;;;2.37;77.34
57847;BME280;43675;50.030;21.952;2023-04-28T04:54:30;99297.69;;;2.45;77.33
57847;BME280;43675;50.030;21.952;2023-04-28T04:56:57;99300.83;;;2.53;77.15
57847;BME280;43675;50.030;21.952;2023-04-28T04:59:23;99302.06;;;2.58;77.11
57847;BME280;43675;50.030;21.952;2023-04-28T05:01:50;99300.61;;;2.62;77.04
57847;BME280;43675;50.030;21.952;2023-04-28T05:04:16;99303.73;;;2.66;76.86
57847;BME280;43675;50.030;21.952;2023-04-28T05:06:43;99305.20;;;2.69;76.70
57847;BME280;43675;50.030;21.952;2023-04-28T05:09:09;99305.81;;;2.72;76.48
57847;BME280;43675;50.030;21.952;2023-04-28T05:11:36;99304.25;;;2.77;76.27
57847;BME280;43675;50.030;21.952;2023-04-28T05:14:02;99299.73;;;2.85;76.22
57847;BME280;43675;50.030;21.952;2023-04-28T05:16:29;99303.63;;;2.98;76.39
57847;BME280;43675;50.030;21.952;2023-04-28T05:18:56;99303.45;;;3.14;76.33
57847;BME280;43675;50.030;21.952;2023-04-28T05:21:22;99306.69;;;3.34;76.12
57847;BME280;43675;50.030;21.952;2023-04-28T05:23:49;99306.26;;;3.56;75.78
57847;BME280;43675;50.030;21.952;2023-04-28T05:26:15;99308.39;;;3.80;75.58
57847;BME280;43675;50.030;21.952;2023-04-28T05:28:42;99307.02;;;4.05;75.62
57847;BME280;43675;50.030;21.952;2023-04-28T05:31:09;99303.76;;;4.33;75.00
57847;BME280;43675;50.030;21.952;2023-04-28T05:33:35;99302.90;;;4.64;74.73
57847;BME280;43675;50.030;21.952;2023-04-28T05:36:02;99306.38;;;5.01;74.21
57847;BME280;43675;50.030;21.952;2023-04-28T05:38:28;99304.02;;;5.41;73.59
57847;BME280;43675;50.030;21.952;2023-04-28T05:40:55;99300.08;;;5.83;72.87
57847;BME280;43675;50.030;21.952;2023-04-28T05:43:21;99298.68;;;6.26;72.39
57847;BME280;43675;50.030;21.952;2023-04-28T05:45:48;99298.30;;;6.68;71.56
57847;BME280;43675;50.030;21.952;2023-04-28T05:48:15;99296.33;;;7.08;70.99
57847;BME280;43675;50.030;21.952;2023-04-28T05:50:41;99296.83;;;7.45;70.26
57847;BME280;43675;50.030;21.952;2023-04-28T05:53:08;99295.31;;;7.77;69.64
57847;BME280;43675;50.030;21.952;2023-04-28T05:55:34;99291.60;;;8.00;68.75
57847;BME280;43675;50.030;21.952;2023-04-28T05:58:02;99289.71;;;8.18;68.08
57847;BME280;43675;50.030;21.952;2023-04-28T06:00:29;99293.22;;;8.27;67.37
57847;BME280;43675;50.030;21.952;2023-04-28T06:02:56;99297.73;;;8.31;66.92
57847;BME280;43675;50.030;21.952;2023-04-28T06:05:23;99304.05;;;8.32;66.70
57847;BME280;43675;50.030;21.952;2023-04-28T06:07:49;99301.90;;;8.29;66.29
57847;BME280;43675;50.030;21.952;2023-04-28T06:10:16;99302.44;;;8.24;66.13
57847;BME280;43675;50.030;21.952;2023-04-28T06:12:42;99305.47;;;8.17;66.07
57847;BME280;43675;50.030;21.952;2023-04-28T06:15:09;99304.76;;;8.08;65.95
57847;BME280;43675;50.030;21.952;2023-04-28T06:17:37;99307.27;;;7.97;65.76
57847;BME280;43675;50.030;21.952;2023-04-28T06:20:05;99303.31;;;7.89;65.75
57847;BME280;43675;50.030;21.952;2023-04-28T06:22:32;99300.41;;;7.85;65.81
57847;BME280;43675;50.030;21.952;2023-04-28T06:24:58;99300.94;;;7.84;65.67
57847;BME280;43675;50.030;21.952;2023-04-28T06:27:25;99299.33;;;7.85;65.42
57847;BME280;43675;50.030;21.952;2023-04-28T06:29:51;99300.80;;;7.86;65.29
57847;BME280;43675;50.030;21.952;2023-04-28T06:32:18;99300.66;;;7.89;65.13
57847;BME280;43675;50.030;21.952;2023-04-28T06:34:44;99299.70;;;7.92;64.90
57847;BME280;43675;50.030;21.952;2023-04-28T06:37:11;99296.41;;;7.97;64.78
57847;BME280;43675;50.030;21.952;2023-04-28T06:39:37;99300.48;;;8.03;64.47
57847;BME280;43675;50.030;21.952;2023-04-28T06:42:04;99298.66;;;8.10;64.17
57847;BME280;43675;50.030;21.952;2023-04-28T06:44:30;99298.66;;;8.17;64.07
57847;BME280;43675;50.030;21.952;2023-04-28T06:46:57;99304.55;;;8.26;64.00
57847;BME280;43675;50.030;21.952;2023-04-28T06:49:23;99300.98;;;8.35;63.47
57847;BME280;43675;50.030;21.952;2023-04-28T06:51:50;99301.17;;;8.46;63.54
57847;BME280;43675;50.030;21.952;2023-04-28T06:54:17;99301.85;;;8.59;63.21
57847;BME280;43675;50.030;21.952;2023-04-28T06:56:43;99304.07;;;8.70;62.83
57847;BME280;43675;50.030;21.952;2023-04-28T06:59:10;99304.55;;;8.79;62.39
57847;BME280;43675;50.030;21.952;2023-04-28T07:01:36;99305.42;;;8.87;62.30
57847;BME280;43675;50.030;21.952;2023-04-28T07:04:03;99305.48;;;8.95;61.79
57847;BME280;43675;50.030;21.952;2023-04-28T07:06:29;99301.36;;;9.03;61.49
57847;BME280;43675;50.030;21.952;2023-04-28T07:08:56;99300.41;;;9.13;61.05
57847;BME280;43675;50.030;21.952;2023-04-28T07:11:22;99301.34;;;9.24;60.67
57847;BME280;43675;50.030;21.952;2023-04-28T07:13:49;99300.46;;;9.31;60.14
57847;BME280;43675;50.030;21.952;2023-04-28T07:16:16;99294.91;;;9.37;59.74
57847;BME280;43675;50.030;21.952;2023-04-28T07:18:43;99297.88;;;9.45;59.36
57847;BME280;43675;50.030;21.952;2023-04-28T07:21:10;99293.66;;;9.54;58.70
57847;BME280;43675;50.030;21.952;2023-04-28T07:23:36;99296.09;;;9.63;58.29
57847;BME280;43675;50.030;21.952;2023-04-28T07:26:03;99289.99;;;9.73;58.10
57847;BME280;43675;50.030;21.952;2023-04-28T07:28:30;99288.33;;;9.79;57.37
57847;BME280;43675;50.030;21.952;2023-04-28T07:30:56;99290.17;;;9.84;56.94
57847;BME280;43675;50.030;21.952;2023-04-28T07:33:24;99291.33;;;9.91;56.87
57847;BME280;43675;50.030;21.952;2023-04-28T07:35:50;99290.31;;;9.98;56.57
57847;BME280;43675;50.030;21.952;2023-04-28T07:38:17;99288.24;;;10.03;56.19
57847;BME280;43675;50.030;21.952;2023-04-28T07:40:43;99284.20;;;10.10;56.21
57847;BME280;43675;50.030;21.952;2023-04-28T07:43:10;99284.20;;;10.18;55.82
57847;BME280;43675;50.030;21.952;2023-04-28T07:45:38;99283.42;;;10.27;55.59
57847;BME280;43675;50.030;21.952;2023-04-28T07:48:05;99278.66;;;10.37;55.31
57847;BME280;43675;50.030;21.952;2023-04-28T07:50:32;99275.23;;;10.48;55.05
57847;BME280;43675;50.030;21.952;2023-04-28T07:52:59;99272.70;;;10.60;54.57
57847;BME280;43675;50.030;21.952;2023-04-28T07:55:26;99277.70;;;10.70;54.14
57847;BME280;43675;50.030;21.952;2023-04-28T07:57:52;99277.32;;;10.79;53.65
57847;BME280;43675;50.030;21.952;2023-04-28T08:00:19;99272.70;;;10.88;52.95
57847;BME280;43675;50.030;21.952;2023-04-28T08:02:45;99270.38;;;10.95;52.59
57847;BME280;43675;50.030;21.952;2023-04-28T08:05:12;99268.17;;;11.02;51.74
57847;BME280;43675;50.030;21.952;2023-04-28T08:07:38;99268.95;;;11.16;51.35
57847;BME280;43675;50.030;21.952;2023-04-28T08:10:05;99268.20;;;11.36;50.50
57847;BME280;43675;50.030;21.952;2023-04-28T08:12:32;99266.96;;;11.61;49.29
57847;BME280;43675;50.030;21.952;2023-04-28T08:14:58;99266.40;;;11.89;48.35
57847;BME280;43675;50.030;21.952;2023-04-28T08:17:25;99257.77;;;12.06;47.01
57847;BME280;43675;50.030;21.952;2023-04-28T08:19:51;99256.27;;;12.18;46.75
57847;BME280;43675;50.030;21.952;2023-04-28T08:22:18;99249.57;;;12.31;46.35
57847;BME280;43675;50.030;21.952;2023-04-28T08:24:44;99250.15;;;12.44;45.91
57847;BME280;43675;50.030;21.952;2023-04-28T08:27:11;99246.68;;;12.62;45.65
57847;BME280;43675;50.030;21.952;2023-04-28T08:29:38;99246.59;;;12.89;45.32
57847;BME280;43675;50.030;21.952;2023-04-28T08:32:04;99242.84;;;13.11;43.78
57847;BME280;43675;50.030;21.952;2023-04-28T08:34:32;99244.52;;;13.19;42.12
57847;BME280;43675;50.030;21.952;2023-04-28T08:36:58;99241.78;;;13.39;41.97
57847;BME280;43675;50.030;21.952;2023-04-28T08:39:26;99235.77;;;13.70;41.33
57847;BME280;43675;50.030;21.952;2023-04-28T08:41:53;99233.89;;;14.10;40.62
57847;BME280;43675;50.030;21.952;2023-04-28T08:44:19;99229.30;;;14.40;39.61
57847;BME280;43675;50.030;21.952;2023-04-28T08:46:48;99227.80;;;14.52;39.18
57847;BME280;43675;50.030;21.952;2023-04-28T08:49:17;99232.00;;;14.54;39.07
57847;BME280;43675;50.030;21.952;2023-04-28T08:51:55;99229.21;;;14.41;38.63
57847;BME280;43675;50.030;21.952;2023-04-28T08:54:22;99226.14;;;14.12;39.03
57847;BME280;43675;50.030;21.952;2023-04-28T08:56:52;99227.00;;;13.85;39.00
57847;BME280;43675;50.030;21.952;2023-04-28T08:59:18;99231.37;;;13.54;38.70
57847;BME280;43675;50.030;21.952;2023-04-28T09:01:47;99231.52;;;13.19;38.24
57847;BME280;43675;50.030;21.952;2023-04-28T09:04:17;99233.15;;;12.92;38.63
57847;BME280;43675;50.030;21.952;2023-04-28T09:06:44;99233.09;;;12.80;38.65
57847;BME280;43675;50.030;21.952;2023-04-28T09:09:37;99228.21;;;12.84;38.53
57847;BME280;43675;50.030;21.952;2023-04-28T09:12:03;99224.09;;;13.04;39.20
57847;BME280;43675;50.030;21.952;2023-04-28T09:14:32;99220.55;;;13.34;39.09
57847;BME280;43675;50.030;21.952;2023-04-28T09:17:00;99214.23;;;13.66;38.69
57847;BME280;43675;50.030;21.952;2023-04-28T09:19:34;99208.48;;;13.97;37.86
57847;BME280;43675;50.030;21.952;2023-04-28T09:22:01;99209.47;;;14.18;37.71
57847;BME280;43675;50.030;21.952;2023-04-28T09:24:29;99208.21;;;14.39;37.35
57847;BME280;43675;50.030;21.952;2023-04-28T09:26:59;99210.90;;;14.61;37.25
57847;BME280;43675;50.030;21.952;2023-04-28T09:29:27;99213.50;;;14.68;37.02
57847;BME280;43675;50.030;21.952;2023-04-28T09:32:14;99213.70;;;14.62;36.99
57847;BME280;43675;50.030;21.952;2023-04-28T09:34:54;99209.85;;;14.45;37.24
57847;BME280;43675;50.030;21.952;2023-04-28T09:37:25;99205.08;;;14.29;37.44
57847;BME280;43675;50.030;21.952;2023-04-28T09:39:53;99199.52;;;14.12;37.13
57847;BME280;43675;50.030;21.952;2023-04-28T09:45:10;99196.94;;;14.02;37.07
57847;BME280;43675;50.030;21.952;2023-04-28T09:47:46;99193.23;;;14.00;37.07
57847;BME280;43675;50.030;21.952;2023-04-28T09:50:14;99188.48;;;14.05;36.88
57847;BME280;43675;50.030;21.952;2023-04-28T09:52:54;99186.64;;;14.11;36.95
57847;BME280;43675;50.030;21.952;2023-04-28T09:55:21;99188.52;;;14.20;36.77
57847;BME280;43675;50.030;21.952;2023-04-28T09:57:48;99187.48;;;14.36;36.29
57847;BME280;43675;50.030;21.952;2023-04-28T10:00:19;99186.53;;;14.45;35.87
57847;BME280;43675;50.030;21.952;2023-04-28T10:02:48;99183.51;;;14.45;35.29
57847;BME280;43675;50.030;21.952;2023-04-28T10:05:15;99180.09;;;14.50;35.38
57847;BME280;43675;50.030;21.952;2023-04-28T10:07:42;99178.39;;;14.53;35.29
57847;BME280;43675;50.030;21.952;2023-04-28T10:10:09;99171.36;;;14.60;35.33
57847;BME280;43675;50.030;21.952;2023-04-28T10:12:36;99169.95;;;14.75;35.21
57847;BME280;43675;50.030;21.952;2023-04-28T10:15:03;99168.14;;;14.88;35.26
57847;BME280;43675;50.030;21.952;2023-04-28T10:17:30;99164.02;;;14.85;34.71
57847;BME280;43675;50.030;21.952;2023-04-28T10:19:59;99163.27;;;14.84;34.82
57847;BME280;43675;50.030;21.952;2023-04-28T10:27:45;99154.75;;;14.35;34.64
57847;BME280;43675;50.030;21.952;2023-04-28T10:30:24;99153.42;;;14.16;35.05
57847;BME280;43675;50.030;21.952;2023-04-28T10:35:40;99148.98;;;13.90;35.34
57847;BME280;43675;50.030;21.952;2023-04-28T10:38:08;99145.17;;;13.71;34.95
57847;BME280;43675;50.030;21.952;2023-04-28T10:43:04;99138.29;;;13.45;34.83
57847;BME280;43675;50.030;21.952;2023-04-28T10:48:21;99134.20;;;13.33;35.63
57847;BME280;43675;50.030;21.952;2023-04-28T10:56:19;99124.17;;;13.32;36.09
57847;BME280;43675;50.030;21.952;2023-04-28T10:58:50;99113.76;;;13.43;35.97
57847;BME280;43675;50.030;21.952;2023-04-28T11:06:27;99106.48;;;13.97;35.16
57847;BME280;43675;50.030;21.952;2023-04-28T11:08:56;99101.52;;;14.19;34.89
57847;BME280;43675;50.030;21.952;2023-04-28T11:11:28;99100.98;;;14.40;34.91
57847;BME280;43675;50.030;21.952;2023-04-28T11:17:09;99086.98;;;14.67;34.39
57847;BME280;43675;50.030;21.952;2023-04-28T11:19:43;99081.52;;;14.80;34.57
57847;BME280;43675;50.030;21.952;2023-04-28T11:22:14;99076.73;;;14.89;34.48
57847;BME280;43675;50.030;21.952;2023-04-28T11:25:02;99073.83;;;14.96;34.37
57847;BME280;43675;50.030;21.952;2023-04-28T11:27:30;99073.33;;;15.02;34.69
57847;BME280;43675;50.030;21.952;2023-04-28T11:29:57;99068.51;;;15.08;34.61
57847;BME280;43675;50.030;21.952;2023-04-28T11:32:32;99064.23;;;15.15;34.59
57847;BME280;43675;50.030;21.952;2023-04-28T11:34:59;99063.93;;;15.25;34.83
57847;BME280;43675;50.030;21.952;2023-04-28T11:37:26;99060.85;;;15.37;34.73
57847;BME280;43675;50.030;21.952;2023-04-28T11:39:53;99058.68;;;15.44;34.17
57847;BME280;43675;50.030;21.952;2023-04-28T11:42:19;99058.96;;;15.49;34.12
57847;BME280;43675;50.030;21.952;2023-04-28T11:44:50;99056.26;;;15.51;33.87
57847;BME280;43675;50.030;21.952;2023-04-28T11:47:33;99052.89;;;15.52;33.80
57847;BME280;43675;50.030;21.952;2023-04-28T11:50:00;99050.77;;;15.54;33.77
57847;BME280;43675;50.030;21.952;2023-04-28T11:52:27;99047.21;;;15.52;33.51
57847;BME280;43675;50.030;21.952;2023-04-28T11:54:54;99045.30;;;15.51;33.56
57847;BME280;43675;50.030;21.952;2023-04-28T11:57:21;99042.79;;;15.53;33.79
57847;BME280;43675;50.030;21.952;2023-04-28T11:59:48;99038.77;;;15.52;33.41
57847;BME280;43675;50.030;21.952;2023-04-28T12:02:23;99037.13;;;15.47;33.15
57847;BME280;43675;50.030;21.952;2023-04-28T12:04:50;99034.08;;;15.40;33.22
57847;BME280;43675;50.030;21.952;2023-04-28T12:07:17;99032.45;;;15.32;32.84
57847;BME280;43675;50.030;21.952;2023-04-28T12:12:34;99023.45;;;15.07;32.88
57847;BME280;43675;50.030;21.952;2023-04-28T12:15:05;99023.73;;;14.96;32.83
57847;BME280;43675;50.030;21.952;2023-04-28T12:17:33;99018.66;;;14.82;32.70
57847;BME280;43675;50.030;21.952;2023-04-28T12:20:02;99018.24;;;14.71;32.94
57847;BME280;43675;50.030;21.952;2023-04-28T12:22:30;99017.54;;;14.69;33.04
57847;BME280;43675;50.030;21.952;2023-04-28T12:25:07;99013.30;;;14.66;32.99
57847;BME280;43675;50.030;21.952;2023-04-28T12:27:36;99010.27;;;14.57;32.98
57847;BME280;43675;50.030;21.952;2023-04-28T12:30:14;99009.33;;;14.52;32.83
57847;BME280;43675;50.030;21.952;2023-04-28T12:32:50;99005.01;;;14.54;33.21
57847;BME280;43675;50.030;21.952;2023-04-28T12:35:16;98999.77;;;14.62;33.07
57847;BME280;43675;50.030;21.952;2023-04-28T12:37:43;98989.98;;;14.66;33.08
57847;BME280;43675;50.030;21.952;2023-04-28T12:40:10;98986.99;;;14.68;32.82
57847;BME280;43675;50.030;21.952;2023-04-28T12:42:36;98985.57;;;14.69;32.86
57847;BME280;43675;50.030;21.952;2023-04-28T12:45:05;98981.93;;;14.73;33.13
57847;BME280;43675;50.030;21.952;2023-04-28T12:47:31;98978.27;;;14.83;33.18
57847;BME280;43675;50.030;21.952;2023-04-28T12:49:58;98976.95;;;14.89;32.25
57847;BME280;43675;50.030;21.952;2023-04-28T12:52:24;98972.23;;;14.83;32.26
57847;BME280;43675;50.030;21.952;2023-04-28T12:54:51;98970.82;;;14.81;32.15
57847;BME280;43675;50.030;21.952;2023-04-28T12:57:18;98974.09;;;14.77;32.15
57847;BME280;43675;50.030;21.952;2023-04-28T12:59:45;98969.23;;;14.69;31.87
57847;BME280;43675;50.030;21.952;2023-04-28T13:02:13;98969.80;;;14.61;31.97
57847;BME280;43675;50.030;21.952;2023-04-28T13:04:40;98966.85;;;14.53;32.03
57847;BME280;43675;50.030;21.952;2023-04-28T13:07:08;98968.21;;;14.49;32.03
57847;BME280;43675;50.030;21.952;2023-04-28T13:09:34;98962.89;;;14.46;32.02
57847;BME280;43675;50.030;21.952;2023-04-28T13:12:01;98956.14;;;14.44;31.94
57847;BME280;43675;50.030;21.952;2023-04-28T13:14:27;98956.79;;;14.46;32.09
57847;BME280;43675;50.030;21.952;2023-04-28T13:16:54;98951.09;;;14.49;31.95
57847;BME280;43675;50.030;21.952;2023-04-28T13:19:20;98946.29;;;14.55;32.21
57847;BME280;43675;50.030;21.952;2023-04-28T13:21:47;98941.95;;;14.66;32.19
57847;BME280;43675;50.030;21.952;2023-04-28T13:24:13;98938.54;;;14.73;31.91
57847;BME280;43675;50.030;21.952;2023-04-28T13:26:40;98937.69;;;14.81;32.08
57847;BME280;43675;50.030;21.952;2023-04-28T13:29:07;98934.02;;;14.93;31.86